createdAt,value
2023-02-14T00:04:01.655Z,5.02
2023-02-14T00:09:03.835Z,4.96
2023-02-14T00:14:24.557Z,5.06
2023-02-14T00:19:26.802Z,5.10
2023-02-14T00:24:29.084Z,5.07
2023-02-14T00:29:32.211Z,5.04
2023-02-14T00:34:36.644Z,5.10
2023-02-14T00:39:39.058Z,5.03
2023-02-14T00:44:41.282Z,5.08
2023-02-14T00:49:43.172Z,5.10
2023-02-14T00:54:45.132Z,5.10
2023-02-14T00:59:49.323Z,5.13
2023-02-14T01:04:51.625Z,5.16
2023-02-14T01:09:54.504Z,5.14
2023-02-14T01:14:56.968Z,5.14
2023-02-14T01:19:59.054Z,5.18
2023-02-14T01:25:01.072Z,5.23
2023-02-14T01:30:06.072Z,5.19
2023-02-14T01:35:09.211Z,5.23
2023-02-14T01:40:12.374Z,5.24
2023-02-14T01:45:20.955Z,5.27
2023-02-14T01:50:24.409Z,5.26
2023-02-14T01:55:29.981Z,5.31
2023-02-14T02:00:50.375Z,5.37
2023-02-14T02:05:56.439Z,5.42
2023-02-14T02:11:00.142Z,5.42
2023-02-14T02:16:20.910Z,5.40
2023-02-14T02:21:58.082Z,5.48
2023-02-14T02:27:17.042Z,5.51
2023-02-14T02:32:34.092Z,5.57
2023-02-14T02:37:55.282Z,5.58
2023-02-14T02:43:18.589Z,5.58
2023-02-14T02:48:22.435Z,5.63
2023-02-14T02:53:29.673Z,5.63
2023-02-14T02:59:00.152Z,5.74
2023-02-14T03:04:25.359Z,5.69
2023-02-14T03:09:27.287Z,5.71
2023-02-14T03:14:45.633Z,5.75
2023-02-14T03:20:15.308Z,5.69
2023-02-14T03:25:43.520Z,5.72
2023-02-14T03:30:59.908Z,5.67
2023-02-14T03:36:03.874Z,5.66
2023-02-14T03:41:09.692Z,5.61
2023-02-14T03:46:19.965Z,5.58
2023-02-14T03:51:24.098Z,5.56
2023-02-14T03:56:42.563Z,5.57
2023-02-14T04:01:44.513Z,5.60
2023-02-14T04:06:47.012Z,5.54
2023-02-14T04:11:50.707Z,5.53
2023-02-14T04:17:11.588Z,5.46
2023-02-14T04:22:13.676Z,5.53
2023-02-14T04:27:15.669Z,5.45
2023-02-14T04:32:20.314Z,5.44
2023-02-14T04:37:22.379Z,5.52
2023-02-14T04:42:24.338Z,5.51
2023-02-14T04:47:26.438Z,5.46
2023-02-14T04:52:30.245Z,5.51
2023-02-14T04:57:32.192Z,5.54
2023-02-14T05:02:34.095Z,5.54
2023-02-14T05:07:36.296Z,5.49
2023-02-14T05:12:38.309Z,5.47
2023-02-14T05:17:40.200Z,5.49
2023-02-14T05:22:42.268Z,5.54
2023-02-14T05:27:44.176Z,5.54
2023-02-14T05:32:46.171Z,5.41
2023-02-14T05:37:48.387Z,5.51
2023-02-14T05:42:52.447Z,5.56
2023-02-14T05:47:54.552Z,5.59
2023-02-14T05:52:56.803Z,5.61
2023-02-14T05:57:58.872Z,5.63
2023-02-14T06:03:01.248Z,5.66
2023-02-14T06:08:03.329Z,5.62
2023-02-14T06:13:08.989Z,5.73
2023-02-14T06:18:11.320Z,5.78
2023-02-14T06:23:13.421Z,5.87
2023-02-14T06:28:15.557Z,5.92
2023-02-14T06:33:17.480Z,5.90
2023-02-14T06:38:19.454Z,5.91
2023-02-14T06:43:21.514Z,6.02
2023-02-14T06:48:23.649Z,6.07
2023-02-14T06:53:25.619Z,6.05
2023-02-14T06:58:27.651Z,5.95
2023-02-14T07:03:29.841Z,6.06
2023-02-14T07:08:33.271Z,6.10
2023-02-14T07:13:35.776Z,6.03
2023-02-14T07:18:38.006Z,5.98
2023-02-14T07:23:40.033Z,5.96
2023-02-14T07:28:44.895Z,5.98
2023-02-14T07:33:47.180Z,6.01
2023-02-14T07:38:49.192Z,6.06
2023-02-14T07:43:51.072Z,5.98
2023-02-14T07:48:53.173Z,6.07
2023-02-14T07:53:55.246Z,6.01
2023-02-14T07:58:57.111Z,6.06
2023-02-14T08:03:59.391Z,6.07
2023-02-14T08:09:01.531Z,6.14
2023-02-14T08:14:04.749Z,6.13
2023-02-14T08:19:08.019Z,6.10
2023-02-14T08:24:10.697Z,6.12
2023-02-14T08:29:12.595Z,6.17
2023-02-14T08:34:15.697Z,6.27
2023-02-14T08:39:17.858Z,6.44
2023-02-14T08:44:20.281Z,6.50
2023-02-14T08:49:22.347Z,6.52
2023-02-14T08:54:24.291Z,6.60
2023-02-14T08:59:26.334Z,6.64
2023-02-14T09:04:28.358Z,6.70
2023-02-14T09:09:30.544Z,6.67
2023-02-14T09:14:39.805Z,6.83
2023-02-14T09:19:42.214Z,6.89
2023-02-14T09:24:44.595Z,7.02
2023-02-14T09:29:46.772Z,7.17
2023-02-14T09:35:07.387Z,7.15
2023-02-14T09:40:10.102Z,7.18
2023-02-14T09:45:15.470Z,7.12
2023-02-14T09:50:23.776Z,7.19
2023-02-14T09:55:35.585Z,7.28
2023-02-14T10:00:48.666Z,7.53
2023-02-14T10:06:22.474Z,7.58
2023-02-14T10:11:25.030Z,8.03
2023-02-14T10:16:39.302Z,8.18
2023-02-14T10:21:47.107Z,8.00
2023-02-14T10:26:50.833Z,8.16
2023-02-14T10:32:02.244Z,8.17
2023-02-14T10:37:35.476Z,8.20
2023-02-14T10:43:01.535Z,8.27
2023-02-14T10:48:16.788Z,8.34
2023-02-14T10:54:00.557Z,8.29
2023-02-14T10:59:22.059Z,8.38
2023-02-14T11:04:25.458Z,9.30
2023-02-14T11:09:27.418Z,9.18
2023-02-14T11:14:32.655Z,9.13
2023-02-14T11:19:37.302Z,8.88
2023-02-14T11:24:42.418Z,8.87
2023-02-14T11:29:52.502Z,8.78
2023-02-14T11:35:14.108Z,8.85
2023-02-14T11:40:31.481Z,9.00
2023-02-14T11:45:38.580Z,9.07
2023-02-14T11:50:42.217Z,9.16
2023-02-14T11:55:44.583Z,9.52
2023-02-14T12:00:53.212Z,9.60
2023-02-14T12:06:00.616Z,9.76
2023-02-14T12:11:05.725Z,9.75
2023-02-14T12:16:24.183Z,9.63
2023-02-14T12:21:48.959Z,9.94
2023-02-14T12:27:21.037Z,10.15
2023-02-14T12:32:28.821Z,10.30
2023-02-14T12:37:41.145Z,10.30
2023-02-14T12:43:27.125Z,10.10
2023-02-14T12:49:01.054Z,9.91
2023-02-14T12:54:09.129Z,9.90
2023-02-14T12:59:29.255Z,10.03
2023-02-14T13:04:54.065Z,10.07
2023-02-14T13:10:05.227Z,10.13
2023-02-14T13:15:30.952Z,10.12
2023-02-14T13:20:53.488Z,10.10
2023-02-14T13:26:04.902Z,10.23
2023-02-14T13:31:07.133Z,10.34
2023-02-14T13:36:12.492Z,10.53
2023-02-14T13:41:15.821Z,10.54
2023-02-14T13:46:49.823Z,10.60
2023-02-14T13:51:57.740Z,10.45
2023-02-14T13:57:23.579Z,10.29
2023-02-14T14:02:30.097Z,10.25
2023-02-14T14:07:33.222Z,10.49
2023-02-14T14:12:35.278Z,10.47
2023-02-14T14:17:44.642Z,10.66
2023-02-14T14:22:48.790Z,10.76
2023-02-14T14:27:50.760Z,10.76
2023-02-14T14:32:52.724Z,10.85
2023-02-14T14:37:56.940Z,10.86
2023-02-14T14:43:23.638Z,10.76
2023-02-14T14:48:33.687Z,10.52
2023-02-14T14:53:42.206Z,10.55
2023-02-14T14:58:44.459Z,10.50
2023-02-14T15:03:46.479Z,10.47
2023-02-14T15:08:49.904Z,10.51
2023-02-14T15:13:57.596Z,10.61
2023-02-14T15:19:01.778Z,10.61
2023-02-14T15:24:04.452Z,10.67
2023-02-14T15:29:07.672Z,10.77
2023-02-14T15:34:10.734Z,10.75
2023-02-14T15:39:14.317Z,10.56
2023-02-14T15:44:21.180Z,10.58
2023-02-14T15:49:30.321Z,10.53
2023-02-14T15:54:38.861Z,10.63
2023-02-14T15:59:42.276Z,10.72
2023-02-14T16:04:44.488Z,10.73
2023-02-14T16:09:46.426Z,10.77
2023-02-14T16:15:03.228Z,10.76
2023-02-14T16:20:30.050Z,10.76
2023-02-14T16:25:32.222Z,10.63
2023-02-14T16:30:34.163Z,10.61
2023-02-14T16:35:36.140Z,10.65
2023-02-14T16:40:38.022Z,10.50
2023-02-14T16:45:41.252Z,10.56
2023-02-14T16:50:43.645Z,10.51
2023-02-14T16:55:45.552Z,10.48
2023-02-14T17:00:47.646Z,10.36
2023-02-14T17:05:49.848Z,10.41
2023-02-14T17:10:52.300Z,10.34
2023-02-14T17:15:56.193Z,10.34
2023-02-14T17:20:59.594Z,10.33
2023-02-14T17:26:06.318Z,10.23
2023-02-14T17:31:08.569Z,10.10
2023-02-14T17:36:12.854Z,10.08
2023-02-14T17:41:22.364Z,9.96
2023-02-14T17:46:24.509Z,9.80
2023-02-14T17:51:26.475Z,9.80
2023-02-14T17:56:28.392Z,9.70
2023-02-14T18:01:34.629Z,9.60
2023-02-14T18:06:37.458Z,9.44
2023-02-14T18:11:40.437Z,9.34
2023-02-14T18:16:44.896Z,9.27
2023-02-14T18:21:47.708Z,9.23
2023-02-14T18:26:49.866Z,9.20
2023-02-14T18:31:52.124Z,9.12
2023-02-14T18:36:55.070Z,8.98
2023-02-14T18:42:00.021Z,8.96
2023-02-14T18:47:02.809Z,8.91
2023-02-14T18:52:07.010Z,8.85
2023-02-14T18:57:09.086Z,8.83
2023-02-14T19:02:12.104Z,8.77
2023-02-14T19:07:14.272Z,8.73
2023-02-14T19:12:16.348Z,8.71
2023-02-14T19:17:18.324Z,8.64
2023-02-14T19:22:20.590Z,8.59
2023-02-14T19:27:24.047Z,8.55
2023-02-14T19:32:26.596Z,8.43
2023-02-14T19:37:28.548Z,8.38
2023-02-14T19:42:30.470Z,8.31
2023-02-14T19:47:46.314Z,8.25
2023-02-14T19:52:49.339Z,8.21
2023-02-14T19:57:51.320Z,8.18
2023-02-14T20:02:53.397Z,8.05
2023-02-14T20:07:55.536Z,7.99
2023-02-14T20:12:57.470Z,7.86
2023-02-14T20:17:59.468Z,7.89
2023-02-14T20:23:02.524Z,7.91
2023-02-14T20:28:05.088Z,7.83
2023-02-14T20:33:07.264Z,7.71
2023-02-14T20:38:09.507Z,7.73
2023-02-14T20:43:11.549Z,7.83
2023-02-14T20:48:13.571Z,7.79
2023-02-14T20:53:15.441Z,7.76
2023-02-14T20:58:17.488Z,7.73
2023-02-14T21:03:19.748Z,7.76
2023-02-14T21:08:22.460Z,7.74
2023-02-14T21:13:24.609Z,7.74
2023-02-14T21:18:26.578Z,7.81
2023-02-14T21:23:28.639Z,7.81
2023-02-14T21:28:30.789Z,7.69
2023-02-14T21:33:33.500Z,7.73
2023-02-14T21:38:36.059Z,7.63
2023-02-14T21:43:40.502Z,7.72
2023-02-14T21:49:01.939Z,7.63
2023-02-14T21:54:04.021Z,7.71
2023-02-14T21:59:06.169Z,7.67
2023-02-14T22:04:10.657Z,7.81
2023-02-14T22:09:14.362Z,7.83
2023-02-14T22:14:16.487Z,7.88
2023-02-14T22:19:18.477Z,7.83
2023-02-14T22:24:20.619Z,7.75
2023-02-14T22:29:22.747Z,7.69
2023-02-14T22:34:25.119Z,7.58
2023-02-14T22:39:26.966Z,7.62
2023-02-14T22:44:29.267Z,7.72
2023-02-14T22:49:31.362Z,7.67
2023-02-14T22:54:33.415Z,7.67
2023-02-14T22:59:35.361Z,7.66
2023-02-14T23:04:37.395Z,7.69
2023-02-14T23:09:39.447Z,7.67
2023-02-14T23:14:59.998Z,7.61
2023-02-14T23:20:20.578Z,7.74
2023-02-14T23:25:22.943Z,7.82
2023-02-14T23:30:25.284Z,7.75
2023-02-14T23:35:27.343Z,7.86
2023-02-14T23:40:29.440Z,7.86
2023-02-14T23:45:38.794Z,7.88
2023-02-14T23:50:40.852Z,7.88
2023-02-14T23:55:43.054Z,7.95
